Time;durP1;ratioP1;P1;durP2;ratioP2;P2;SDS_P1;SDS_P2;PMS_P1;PMS_P2;Temp;Humidity;BMP_temperature;BMP_pressure;BME280_temperature;BME280_humidity;BME280_pressure;Samples;Min_cycle;Max_cycle;Signal;HPM_P1;HPM_P2
2022/08/19 00:02:10;;;;;;;16.45;12.13;;;24.60;99.90;;;;;;5060178;28;20220;-78
2022/08/19 00:04:59;;;;;;;14.45;12.57;;;24.50;99.90;;;;;;5057928;28;20225;-79
2022/08/19 00:07:48;;;;;;;15.43;11.82;;;24.50;99.90;;;;;;5059152;28;20243;-77
2022/08/19 00:10:37;;;;;;;22.83;12.02;;;24.50;99.90;;;;;;5048268;28;20226;-78
2022/08/19 00:13:28;;;;;;;17.65;12.80;;;24.50;99.90;;;;;;5046842;28;20742;-76
2022/08/19 00:16:19;;;;;;;15.52;12.30;;;24.40;99.90;;;;;;5047423;28;20227;-77
2022/08/19 00:19:15;;;;;;;16.58;12.07;;;24.50;99.90;;;;;;5059000;28;20220;-79
2022/08/19 00:22:05;;;;;;;15.52;12.10;;;24.40;99.90;;;;;;5049568;28;20216;-78
2022/08/19 00:24:53;;;;;;;16.88;12.13;;;24.40;99.90;;;;;;5041165;28;20233;-80
2022/08/19 00:27:42;;;;;;;16.40;12.25;;;24.30;99.90;;;;;;5056856;28;20362;-79
2022/08/19 00:30:31;;;;;;;14.35;12.02;;;24.30;99.90;;;;;;5055405;28;20229;-80
2022/08/19 00:33:19;;;;;;;17.40;12.75;;;24.30;99.90;;;;;;5046390;28;20235;-81
2022/08/19 00:36:11;;;;;;;18.25;12.50;;;24.20;99.90;;;;;;5053160;28;20220;-80
2022/08/19 00:39:01;;;;;;;17.00;12.48;;;24.30;99.90;;;;;;5059429;28;20329;-80
2022/08/19 00:41:51;;;;;;;15.98;12.23;;;24.20;99.90;;;;;;5055544;28;20306;-80
2022/08/19 00:44:40;;;;;;;16.95;12.52;;;24.30;99.90;;;;;;5058514;28;20235;-80
2022/08/19 00:47:28;;;;;;;15.40;12.40;;;24.10;99.90;;;;;;5062927;28;20239;-79
2022/08/19 00:50:20;;;;;;;19.17;13.23;;;24.20;99.90;;;;;;5059094;28;20223;-77
2022/08/19 00:53:11;;;;;;;24.42;12.40;;;24.20;99.90;;;;;;5059702;28;20224;-79
2022/08/19 00:56:02;;;;;;;17.40;12.38;;;24.10;99.90;;;;;;5060501;28;20734;-78
2022/08/19 00:58:51;;;;;;;14.95;13.02;;;24.00;99.90;;;;;;5044231;28;20220;-79
2022/08/19 01:01:43;;;;;;;19.92;12.77;;;24.00;99.90;;;;;;5062202;28;20258;-79
2022/08/19 01:04:32;;;;;;;15.77;12.25;;;23.80;99.90;;;;;;5059079;28;20220;-79
2022/08/19 01:07:20;;;;;;;16.23;12.88;;;23.80;99.90;;;;;;5058224;28;20212;-79
2022/08/19 01:10:15;;;;;;;17.27;12.98;;;23.80;99.90;;;;;;5044954;28;20315;-80
2022/08/19 01:13:05;;;;;;;21.88;12.65;;;23.80;99.90;;;;;;5061293;28;20229;-79
2022/08/19 01:15:58;;;;;;;14.00;12.35;;;23.80;99.90;;;;;;5043017;28;20246;-78
2022/08/19 01:18:47;;;;;;;17.02;12.88;;;23.80;99.90;;;;;;5044312;28;20233;-78
2022/08/19 01:21:41;;;;;;;15.50;12.50;;;23.80;99.90;;;;;;5046986;28;20243;-82
2022/08/19 01:24:31;;;;;;;16.10;13.27;;;23.90;99.90;;;;;;5061044;28;20224;-81
2022/08/19 01:27:20;;;;;;;25.75;13.18;;;23.80;99.90;;;;;;5059292;28;20217;-79
2022/08/19 01:30:11;;;;;;;17.00;13.30;;;23.80;99.90;;;;;;5041151;28;20232;-80
2022/08/19 01:33:00;;;;;;;18.13;14.25;;;23.70;99.90;;;;;;5043547;28;20220;-80
2022/08/19 01:35:51;;;;;;;18.95;13.02;;;23.80;99.90;;;;;;5044683;28;20219;-80
2022/08/19 01:38:43;;;;;;;17.48;13.95;;;23.70;99.90;;;;;;5060130;28;20276;-80
2022/08/19 01:41:33;;;;;;;15.40;13.77;;;23.70;99.90;;;;;;5057913;28;20251;-80
2022/08/19 01:44:23;;;;;;;21.25;13.32;;;23.70;99.90;;;;;;5043183;28;20224;-80
2022/08/19 01:47:15;;;;;;;15.43;13.75;;;23.60;99.90;;;;;;5048707;28;20224;-80
2022/08/19 01:50:06;;;;;;;16.92;13.88;;;23.40;99.90;;;;;;5057024;28;20221;-79
2022/08/19 01:52:54;;;;;;;15.82;13.90;;;23.60;99.90;;;;;;5023052;28;20602;-81
2022/08/19 01:55:55;;;;;;;18.27;13.73;;;23.50;99.90;;;;;;5024008;28;20229;-79
2022/08/19 01:58:49;;;;;;;16.95;13.95;;;23.50;99.90;;;;;;5025846;28;20646;-79
2022/08/19 02:01:37;;;;;;;16.85;13.50;;;23.50;99.90;;;;;;5025512;28;20229;-80
2022/08/19 02:04:26;;;;;;;18.05;13.77;;;23.50;99.90;;;;;;5024946;28;20221;-79
2022/08/19 02:07:15;;;;;;;17.50;13.38;;;23.40;99.90;;;;;;5042987;28;20241;-81
2022/08/19 02:10:05;;;;;;;19.15;14.40;;;23.30;99.90;;;;;;5018093;28;20229;-80
2022/08/19 02:13:00;;;;;;;17.08;13.85;;;23.20;99.90;;;;;;5026801;28;20320;-81
2022/08/19 02:15:50;;;;;;;16.38;14.05;;;23.20;99.90;;;;;;5021612;28;20220;-80
2022/08/19 02:18:38;;;;;;;18.48;13.60;;;;;;;;;;5024254;28;20729;-79
2022/08/19 02:21:28;;;;;;;15.80;14.13;;;23.20;99.90;;;;;;5018147;28;20229;-79
2022/08/19 02:24:17;;;;;;;16.40;12.80;;;23.10;99.90;;;;;;5035972;28;20445;-79
2022/08/19 02:27:06;;;;;;;16.50;13.60;;;23.10;99.90;;;;;;5039485;28;20632;-80
2022/08/19 02:29:54;;;;;;;17.65;13.07;;;23.10;99.90;;;;;;5017910;28;20225;-79
2022/08/19 02:32:44;;;;;;;19.77;14.10;;;23.10;99.90;;;;;;5022998;28;20225;-78
2022/08/19 02:35:33;;;;;;;18.02;13.52;;;23.10;99.90;;;;;;5016865;28;20300;-79
2022/08/19 02:38:27;;;;;;;17.10;13.85;;;23.00;99.90;;;;;;5019678;28;20221;-78
2022/08/19 02:41:18;;;;;;;17.35;13.43;;;23.20;99.90;;;;;;5025532;28;20230;-79
2022/08/19 02:44:08;;;;;;;19.80;14.35;;;23.10;99.90;;;;;;5033027;28;20217;-78
2022/08/19 02:47:18;;;;;;;21.60;14.85;;;23.00;99.90;;;;;;5025590;28;20221;-80
2022/08/19 02:50:09;;;;;;;15.82;13.10;;;23.00;99.90;;;;;;5024984;28;20221;-80
2022/08/19 02:52:57;;;;;;;17.13;13.15;;;22.90;99.90;;;;;;5017618;28;20218;-79
2022/08/19 02:55:47;;;;;;;18.55;13.68;;;22.90;99.90;;;;;;5026397;28;20232;-79
2022/08/19 02:58:36;;;;;;;16.48;14.07;;;22.90;99.90;;;;;;5035127;28;20224;-79
2022/08/19 03:01:28;;;;;;;20.70;14.05;;;22.80;99.90;;;;;;5021224;28;20271;-81
2022/08/19 03:04:17;;;;;;;18.02;13.93;;;22.80;99.90;;;;;;5023578;28;20229;-81
2022/08/19 03:07:07;;;;;;;17.10;13.48;;;22.80;99.90;;;;;;5025076;28;20253;-79
2022/08/19 03:09:58;;;;;;;17.90;14.18;;;22.70;99.90;;;;;;5020351;28;20232;-80
2022/08/19 03:12:47;;;;;;;15.73;13.85;;;22.70;99.90;;;;;;5025873;28;20695;-79
2022/08/19 03:15:40;;;;;;;18.27;13.40;;;22.80;99.90;;;;;;5023367;28;20232;-80
2022/08/19 03:18:29;;;;;;;15.27;13.50;;;22.70;99.90;;;;;;5018885;28;20221;-80
2022/08/19 03:21:19;;;;;;;19.48;14.50;;;22.70;99.90;;;;;;5024023;28;20252;-80
2022/08/19 03:24:09;;;;;;;21.33;15.30;;;22.70;99.90;;;;;;5023173;28;20230;-80
2022/08/19 03:26:58;;;;;;;21.50;15.30;;;22.80;99.90;;;;;;5022119;28;20594;-80
2022/08/19 03:29:47;;;;;;;18.35;14.77;;;22.70;99.90;;;;;;5032357;28;20233;-80
2022/08/19 03:32:36;;;;;;;18.42;14.43;;;22.70;99.90;;;;;;5034856;28;20229;-80
2022/08/19 03:35:44;;;;;;;21.30;14.60;;;22.70;99.90;;;;;;5033582;28;20213;-79
2022/08/19 03:38:33;;;;;;;16.35;13.43;;;22.60;99.90;;;;;;5021168;28;20221;-80
2022/08/19 03:41:26;;;;;;;17.98;14.20;;;22.60;99.90;;;;;;5023792;28;20244;-79
2022/08/19 03:44:32;;;;;;;18.48;14.57;;;22.60;99.90;;;;;;5022292;28;20553;-79
2022/08/19 03:47:21;;;;;;;19.20;14.30;;;22.60;99.90;;;;;;5018793;28;20221;-79
2022/08/19 03:50:10;;;;;;;18.58;14.25;;;22.60;99.90;;;;;;5017834;28;20224;-78
2022/08/19 03:53:00;;;;;;;18.25;14.20;;;22.60;99.90;;;;;;5030776;28;20232;-77
2022/08/19 03:55:49;;;;;;;18.48;14.52;;;22.70;99.90;;;;;;5024461;28;20239;-79
2022/08/19 03:58:43;;;;;;;19.00;14.23;;;22.70;99.90;;;;;;5039205;28;20220;-79
2022/08/19 04:01:35;;;;;;;16.65;14.60;;;22.70;99.90;;;;;;5026849;28;20225;-79
2022/08/19 04:04:25;;;;;;;16.88;14.90;;;22.70;99.90;;;;;;5038998;28;20228;-79
2022/08/19 04:07:17;;;;;;;20.45;15.10;;;22.80;99.90;;;;;;5041899;28;20335;-79
2022/08/19 04:10:08;;;;;;;18.10;14.85;;;22.80;99.90;;;;;;5027195;28;20246;-79
2022/08/19 04:12:57;;;;;;;16.73;15.00;;;22.70;99.90;;;;;;5038826;28;20733;-80
2022/08/19 04:15:48;;;;;;;18.83;15.27;;;22.70;99.90;;;;;;5035954;28;20221;-80
2022/08/19 04:18:37;;;;;;;17.35;14.48;;;22.80;99.90;;;;;;5040792;28;20237;-81
2022/08/19 04:21:27;;;;;;;19.45;15.35;;;22.80;99.90;;;;;;5021342;28;20217;-81
2022/08/19 04:24:16;;;;;;;19.75;15.35;;;22.80;99.90;;;;;;5041983;28;20217;-80
2022/08/19 04:27:06;;;;;;;22.02;16.05;;;22.90;99.90;;;;;;5044289;28;20764;-80
2022/08/19 04:29:55;;;;;;;19.13;16.25;;;22.80;99.90;;;;;;5037883;28;20228;-79
2022/08/19 04:32:45;;;;;;;18.63;15.82;;;23.10;99.90;;;;;;5037489;28;20307;-80
2022/08/19 04:35:37;;;;;;;17.70;15.30;;;23.20;99.90;;;;;;5026233;28;20345;-80
2022/08/19 04:38:26;;;;;;;18.10;15.38;;;23.10;99.90;;;;;;5043293;28;20217;-81
2022/08/19 04:44:20;;;;;;;21.85;15.80;;;23.30;99.90;;;;;;5041369;28;20221;-76
2022/08/19 04:47:09;;;;;;;20.45;16.27;;;23.30;99.90;;;;;;5040181;28;20228;-79
2022/08/19 04:50:00;;;;;;;19.70;16.33;;;23.10;99.90;;;;;;5027434;28;20224;-80
2022/08/19 04:52:51;;;;;;;19.48;14.70;;;23.20;99.90;;;;;;5041154;28;20231;-81
2022/08/19 04:55:42;;;;;;;22.55;14.73;;;23.30;99.90;;;;;;5034580;28;20229;-79
2022/08/19 04:58:31;;;;;;;19.92;14.80;;;23.40;99.90;;;;;;5037056;28;20266;-80
2022/08/19 05:01:22;;;;;;;21.83;15.27;;;23.40;99.90;;;;;;5039827;28;20220;-80
2022/08/19 05:04:12;;;;;;;21.30;14.70;;;23.40;99.90;;;;;;5039176;28;20232;-78
2022/08/19 05:07:02;;;;;;;22.00;13.95;;;23.40;99.90;;;;;;5038498;28;20252;-80
2022/08/19 05:09:51;;;;;;;16.83;13.73;;;23.50;99.90;;;;;;5037264;28;20630;-79
2022/08/19 05:12:46;;;;;;;18.88;13.55;;;23.40;99.90;;;;;;5036706;28;20258;-79
2022/08/19 05:15:35;;;;;;;14.45;12.13;;;23.20;99.90;;;;;;5036188;28;20232;-78
2022/08/19 05:24:38;;;;;;;15.07;12.77;;;23.20;99.90;;;;;;5038557;28;20889;-79
2022/08/19 05:27:48;;;;;;;14.05;12.48;;;23.20;99.90;;;;;;5040067;28;20228;-79
2022/08/19 05:30:36;;;;;;;17.30;12.88;;;23.30;99.90;;;;;;5030547;28;20252;-80
2022/08/19 05:33:35;;;;;;;16.42;12.80;;;23.30;99.90;;;;;;5024622;28;20217;-79
2022/08/19 05:36:23;;;;;;;14.95;11.75;;;23.30;99.90;;;;;;5040304;28;20383;-79
2022/08/19 05:39:16;;;;;;;16.25;13.02;;;23.40;99.90;;;;;;5024744;28;20236;-80
2022/08/19 05:42:08;;;;;;;14.60;12.63;;;23.40;99.90;;;;;;5041801;28;20605;-80
2022/08/19 05:44:57;;;;;;;16.83;12.73;;;23.40;99.90;;;;;;5038659;28;20224;-81
2022/08/19 05:47:46;;;;;;;14.93;12.07;;;23.40;99.90;;;;;;5034038;28;20260;-78
2022/08/19 05:50:37;;;;;;;15.25;12.70;;;23.50;99.90;;;;;;5041007;28;20232;-78
2022/08/19 05:53:26;;;;;;;15.25;11.13;;;23.80;99.90;;;;;;5045995;28;20629;-77
2022/08/19 05:56:16;;;;;;;20.88;12.48;;;24.20;99.90;;;;;;5061505;28;20220;-79
2022/08/19 05:59:10;;;;;;;15.75;11.27;;;24.40;99.90;;;;;;5059274;28;20677;-79
2022/08/19 06:02:00;;;;;;;16.20;12.05;;;24.60;99.90;;;;;;5058736;28;20252;-79
2022/08/19 06:04:49;;;;;;;15.80;12.20;;;24.50;99.90;;;;;;5060744;28;20220;-79
2022/08/19 06:07:38;;;;;;;16.67;11.45;;;24.30;99.90;;;;;;5044962;28;20220;-78
2022/08/19 06:10:27;;;;;;;18.17;12.45;;;24.30;99.90;;;;;;5058567;28;20739;-79
2022/08/19 06:13:15;;;;;;;14.75;12.07;;;24.50;99.90;;;;;;5059703;28;20268;-80
2022/08/19 06:16:05;;;;;;;19.13;11.88;;;24.60;99.90;;;;;;5059126;28;20227;-81
2022/08/19 06:18:56;;;;;;;15.80;12.82;;;24.50;99.90;;;;;;5058624;28;20245;-80
2022/08/19 06:21:47;;;;;;;21.27;13.40;;;24.50;99.90;;;;;;5059083;28;20220;-79
2022/08/19 06:24:36;;;;;;;15.02;12.35;;;24.60;99.90;;;;;;5061458;28;20876;-80
2022/08/19 06:27:24;;;;;;;14.98;12.57;;;24.50;99.90;;;;;;5058411;28;20716;-80
2022/08/19 06:30:13;;;;;;;16.13;12.13;;;24.60;99.90;;;;;;5061530;28;20747;-81
2022/08/19 06:33:03;;;;;;;17.50;13.02;;;24.50;99.90;;;;;;5045839;28;20235;-82
2022/08/19 06:35:52;;;;;;;16.70;13.38;;;24.60;99.90;;;;;;5046147;28;20220;-84
2022/08/19 06:38:41;;;;;;;18.27;12.70;;;24.90;99.90;;;;;;5046096;28;20303;-83
2022/08/19 06:41:35;;;;;;;14.43;12.45;;;25.20;99.90;;;;;;5062415;28;20790;-87
2022/08/19 06:44:36;;;;;;;13.85;12.20;;;25.80;99.90;;;;;;5062279;28;20294;-81
2022/08/19 06:47:32;;;;;;;17.80;12.43;;;26.10;99.90;;;;;;5062605;28;20736;-80
2022/08/19 06:50:22;;;;;;;16.92;12.82;;;25.80;99.90;;;;;;5049518;28;20589;-81
2022/08/19 06:53:12;;;;;;;17.13;13.65;;;25.70;99.90;;;;;;5062403;28;20239;-87
2022/08/19 06:56:02;;;;;;;16.60;12.30;;;25.50;99.90;;;;;;5056820;28;20298;-85
2022/08/19 06:58:52;;;;;;;16.15;12.32;;;25.40;99.90;;;;;;5040657;28;20221;-84
2022/08/19 07:01:46;;;;;;;17.17;11.50;;;25.40;99.90;;;;;;5042797;28;20224;-82
2022/08/19 07:04:38;;;;;;;20.38;12.15;;;25.50;99.90;;;;;;5061497;28;20377;-83
2022/08/19 07:07:31;;;;;;;17.42;11.13;;;25.50;99.90;;;;;;5063094;28;20728;-87
2022/08/19 07:10:21;;;;;;;16.73;11.68;;;25.50;99.90;;;;;;5048533;28;20258;-83
2022/08/19 07:13:09;;;;;;;19.60;12.25;;;25.40;99.90;;;;;;5057007;28;20220;-83
2022/08/19 07:15:58;;;;;;;20.20;11.75;;;25.50;99.90;;;;;;5063676;28;20239;-83
2022/08/19 07:18:52;;;;;;;13.90;12.25;;;25.80;99.90;;;;;;5057416;28;20216;-79
2022/08/19 07:21:42;;;;;;;16.77;11.77;;;25.90;99.90;;;;;;5057893;28;20216;-80
2022/08/19 07:24:32;;;;;;;15.43;10.80;;;26.10;99.90;;;;;;5059378;28;20220;-81
2022/08/19 07:27:21;;;;;;;18.80;11.63;;;26.50;99.90;;;;;;5060221;28;20302;-80
2022/08/19 07:30:13;;;;;;;21.40;11.55;;;26.80;99.90;;;;;;5046068;28;20274;-83
2022/08/19 07:33:02;;;;;;;14.77;11.15;;;27.00;99.90;;;;;;5060181;28;20234;-81
2022/08/19 07:35:51;;;;;;;22.55;11.30;;;27.00;99.90;;;;;;5060628;28;20254;-81
2022/08/19 07:38:41;;;;;;;12.82;10.73;;;27.20;99.90;;;;;;5055640;28;20280;-81
2022/08/19 07:41:36;;;;;;;19.02;11.68;;;27.20;99.90;;;;;;5047623;28;20232;-79
2022/08/19 07:44:25;;;;;;;15.98;11.07;;;27.30;99.90;;;;;;5060729;28;20247;-82
2022/08/19 07:47:17;;;;;;;17.25;10.73;;;27.50;99.90;;;;;;5052280;28;20239;-83
2022/08/19 07:50:25;;;;;;;13.90;9.85;;;27.70;99.90;;;;;;5059807;28;20224;-79
2022/08/19 07:53:18;;;;;;;15.98;10.63;;;27.90;99.90;;;;;;5054992;28;20240;-84
2022/08/19 07:56:07;;;;;;;12.80;10.20;;;28.00;99.90;;;;;;5036090;28;20589;-84
2022/08/19 07:58:57;;;;;;;14.63;10.38;;;28.10;99.90;;;;;;5057360;28;20223;-81
2022/08/19 08:01:46;;;;;;;10.85;9.38;;;28.30;99.90;;;;;;5055504;28;20815;-81
2022/08/19 08:10:47;;;;;;;11.63;10.25;;;28.40;99.90;;;;;;5037313;28;21886;-81
2022/08/19 08:13:44;;;;;;;13.95;10.32;;;28.60;99.90;;;;;;5057903;28;20776;-81
2022/08/19 08:16:38;;;;;;;14.85;10.48;;;28.70;99.90;;;;;;5038659;28;20462;-83
2022/08/19 08:19:35;;;;;;;13.00;10.25;;;28.90;99.90;;;;;;5044047;28;20216;-86
2022/08/19 08:25:31;;;;;;;15.90;11.02;;;29.20;99.90;;;;;;5042147;28;20219;-85
2022/08/19 08:28:22;;;;;;;16.25;10.93;;;29.30;99.90;;;;;;5059287;28;20601;-84
2022/08/19 08:31:11;;;;;;;16.67;10.85;;;29.40;99.90;;;;;;5059521;28;20235;-84
2022/08/19 08:34:01;;;;;;;17.02;10.63;;;29.70;99.90;;;;;;5049990;28;20227;-83
2022/08/19 08:36:51;;;;;;;12.40;10.55;;;29.70;99.90;;;;;;5062940;28;20708;-81
2022/08/19 08:39:40;;;;;;;12.27;10.32;;;29.70;99.90;;;;;;5058380;28;20235;-82
2022/08/19 08:42:33;;;;;;;15.63;11.02;;;29.90;99.90;;;;;;5062272;28;20220;-81
2022/08/19 08:45:23;;;;;;;14.30;10.93;;;30.00;99.90;;;;;;5056435;28;20219;-80
2022/08/19 08:48:23;;;;;;;12.65;10.35;;;30.40;99.90;;;;;;5060412;28;20227;-81
2022/08/19 08:51:18;;;;;;;19.67;11.15;;;30.70;99.90;;;;;;5044711;28;20231;-83
2022/08/19 08:54:14;;;;;;;15.15;10.32;;;30.80;99.90;;;;;;5045542;28;20223;-84
2022/08/19 08:57:08;;;;;;;14.88;11.00;;;31.30;99.90;;;;;;5059287;28;20664;-80
2022/08/19 08:59:59;;;;;;;13.85;10.93;;;31.20;99.90;;;;;;5057294;28;20699;-82
2022/08/19 09:02:48;;;;;;;17.55;11.27;;;31.20;99.90;;;;;;5046840;28;20220;-82
2022/08/19 09:05:45;;;;;;;14.68;10.52;;;31.30;99.90;;;;;;5060774;28;20235;-82
2022/08/19 09:08:44;;;;;;;15.88;11.18;;;32.00;99.90;;;;;;5064911;28;20947;-82
2022/08/19 09:11:51;;;;;;;12.48;10.40;;;32.40;99.90;;;;;;5067976;28;20215;-82
2022/08/19 09:14:48;;;;;;;16.13;10.10;;;32.50;99.90;;;;;;5049355;28;20203;-82
2022/08/19 09:17:39;;;;;;;12.98;10.00;;;32.80;99.90;;;;;;5066012;28;20215;-81
2022/08/19 09:20:28;;;;;;;13.07;9.32;;;33.30;99.90;;;;;;5058935;28;20223;-81
2022/08/19 09:23:17;;;;;;;13.27;9.65;;;33.40;99.90;;;;;;5050461;28;20231;-82
2022/08/19 09:26:17;;;;;;;14.15;8.95;;;33.70;99.90;;;;;;5051267;28;20748;-83
2022/08/19 09:29:07;;;;;;;16.45;9.68;;;34.30;99.90;;;;;;5065119;28;20228;-81
2022/08/19 09:31:56;;;;;;;13.75;8.95;;;34.70;99.50;;;;;;5062189;28;20228;-82
2022/08/19 09:34:45;;;;;;;11.30;8.38;;;34.50;98.80;;;;;;5053153;28;20223;-82
2022/08/19 09:37:38;;;;;;;15.05;8.77;;;34.90;96.10;;;;;;5062637;28;20228;-82
2022/08/19 09:40:28;;;;;;;23.13;8.27;;;35.50;94.00;;;;;;5048627;28;20215;-82
2022/08/19 09:43:19;;;;;;;14.23;8.88;;;35.60;93.10;;;;;;5059834;28;20213;-82
2022/08/19 09:46:30;;;;;;;9.52;7.82;;;35.60;92.50;;;;;;5063355;28;20212;-82
2022/08/19 09:49:21;;;;;;;12.23;8.18;;;35.80;90.90;;;;;;5064080;28;20227;-82
2022/08/19 09:52:12;;;;;;;18.88;9.18;;;36.00;90.80;;;;;;5049399;28;20704;-83
2022/08/19 09:55:02;;;;;;;12.75;8.18;;;36.30;90.30;;;;;;5065275;28;20212;-82
2022/08/19 09:57:55;;;;;;;14.32;7.95;;;36.80;89.70;;;;;;5052517;28;20276;-83
2022/08/19 10:00:46;;;;;;;12.05;8.82;;;37.10;86.20;;;;;;5050325;28;20639;-83
2022/08/19 10:03:39;;;;;;;11.05;8.35;;;37.50;85.60;;;;;;5067101;28;20230;-83
2022/08/19 10:06:32;;;;;;;15.15;8.68;;;37.50;83.50;;;;;;5048385;28;20219;-82
2022/08/19 10:09:33;;;;;;;12.63;7.95;;;37.00;84.40;;;;;;5063483;28;20761;-82
2022/08/19 10:12:22;;;;;;;11.52;8.20;;;37.30;82.70;;;;;;5053599;28;20220;-83
2022/08/19 10:15:14;;;;;;;10.20;8.43;;;37.00;81.20;;;;;;5068422;28;20688;-83
2022/08/19 10:18:04;;;;;;;21.42;8.18;;;37.20;81.60;;;;;;5065730;28;20220;-82
2022/08/19 10:20:54;;;;;;;12.23;7.55;;;37.10;79.10;;;;;;5065351;28;20589;-83
2022/08/19 10:23:45;;;;;;;10.18;8.20;;;37.50;79.20;;;;;;5065869;28;20228;-84
2022/08/19 10:26:36;;;;;;;13.20;8.35;;;37.60;77.90;;;;;;5062177;28;20524;-82
2022/08/19 10:29:27;;;;;;;12.50;7.82;;;38.00;77.30;;;;;;5047952;28;20224;-81
2022/08/19 10:32:21;;;;;;;12.45;7.32;;;38.50;74.70;;;;;;5061140;28;20215;-82
2022/08/19 10:35:24;;;;;;;12.20;7.78;;;38.60;72.90;;;;;;5064846;28;20227;-82
2022/08/19 10:38:14;;;;;;;16.70;8.52;;;38.50;73.40;;;;;;5061996;28;20232;-82
2022/08/19 10:41:10;;;;;;;17.80;8.52;;;38.90;70.60;;;;;;5059910;28;20583;-82
2022/08/19 10:44:03;;;;;;;12.40;7.63;;;39.50;69.10;;;;;;5051245;28;20219;-82
2022/08/19 10:46:52;;;;;;;8.45;7.60;;;39.50;66.90;;;;;;5051766;28;20607;-83
2022/08/19 10:52:49;;;;;;;12.90;8.18;;;40.50;66.70;;;;;;5062887;28;20230;-83
2022/08/19 10:58:44;;;;;;;15.35;7.63;;;39.70;67.10;;;;;;5065140;28;20223;-83
2022/08/19 11:01:34;;;;;;;12.00;7.32;;;40.20;65.10;;;;;;5068000;28;20688;-82
2022/08/19 11:04:26;;;;;;;9.02;7.13;;;39.80;64.00;;;;;;5066575;28;20223;-83
2022/08/19 11:07:16;;;;;;;16.60;7.45;;;40.40;65.10;;;;;;5063988;28;20607;-83
2022/08/19 11:10:09;;;;;;;8.23;7.03;;;40.10;64.10;;;;;;5065775;28;20223;-83
2022/08/19 11:13:00;;;;;;;11.15;7.20;;;40.40;64.50;;;;;;5051796;28;20342;-83
2022/08/19 11:15:56;;;;;;;17.05;7.53;;;40.90;63.40;;;;;;5063854;28;20222;-83
2022/08/19 11:18:48;;;;;;;11.80;7.53;;;41.30;63.60;;;;;;5065011;28;20596;-83
2022/08/19 11:21:38;;;;;;;11.00;7.25;;;41.00;61.00;;;;;;5046807;28;20216;-82
2022/08/19 11:24:28;;;;;;;11.38;7.28;;;41.10;60.80;;;;;;5062488;28;20227;-81
2022/08/19 11:27:18;;;;;;;11.38;8.02;;;40.70;61.30;;;;;;5065657;28;20219;-82
2022/08/19 11:30:08;;;;;;;14.23;7.72;;;40.60;62.00;;;;;;5051114;28;20231;-83
2022/08/19 11:33:02;;;;;;;13.30;8.20;;;41.20;60.70;;;;;;5065454;28;20247;-83
2022/08/19 11:35:51;;;;;;;11.68;7.53;;;41.60;60.10;;;;;;5066270;28;20697;-81
2022/08/19 11:38:40;;;;;;;13.52;7.65;;;41.30;60.90;;;;;;5061097;28;22331;-82
2022/08/19 11:41:29;;;;;;;9.93;7.18;;;42.00;59.00;;;;;;5064957;28;20633;-83
2022/08/19 11:44:19;;;;;;;14.93;6.90;;;42.70;58.20;;;;;;5064339;28;20227;-83
2022/08/19 11:47:07;;;;;;;11.93;6.90;;;42.30;58.30;;;;;;5063211;28;20227;-83
2022/08/19 11:49:56;;;;;;;11.30;6.70;;;42.90;56.50;;;;;;5046406;28;20232;-83
2022/08/19 11:52:46;;;;;;;8.50;6.38;;;43.00;56.90;;;;;;5049046;28;20246;-83
2022/08/19 11:55:38;;;;;;;11.45;6.90;;;44.00;54.90;;;;;;5050868;28;20265;-83
2022/08/19 11:58:31;;;;;;;8.25;6.80;;;44.00;55.00;;;;;;5048855;28;20257;-83
2022/08/19 12:01:23;;;;;;;12.82;6.90;;;43.70;54.00;;;;;;5061003;28;20227;-83
2022/08/19 12:04:12;;;;;;;9.38;6.65;;;42.00;56.80;;;;;;5064326;28;20708;-83
2022/08/19 12:07:01;;;;;;;14.88;7.30;;;43.00;56.30;;;;;;5049843;28;20720;-83
2022/08/19 12:09:50;;;;;;;8.77;6.80;;;43.40;54.90;;;;;;5062229;28;20224;-83
2022/08/19 12:12:42;;;;;;;13.57;6.90;;;43.50;56.30;;;;;;5056832;28;20293;-84
2022/08/19 12:15:30;;;;;;;12.50;7.03;;;43.00;55.10;;;;;;5065902;28;20600;-84
2022/08/19 12:18:25;;;;;;;12.25;6.97;;;42.30;55.50;;;;;;5076365;28;20247;-84
2022/08/19 12:21:14;;;;;;;13.05;7.03;;;41.50;55.80;;;;;;5071145;28;20248;-83
2022/08/19 12:24:05;;;;;;;12.80;6.80;;;39.90;58.90;;;;;;5050675;28;20226;-82
2022/08/19 12:26:56;;;;;;;16.75;7.85;;;38.20;61.00;;;;;;5046073;28;20432;-84
2022/08/19 12:29:50;;;;;;;9.85;7.30;;;37.20;65.50;;;;;;5065909;28;20230;-83
2022/08/19 12:32:39;;;;;;;12.52;8.10;;;36.40;66.40;;;;;;5046607;28;20595;-83
2022/08/19 12:35:30;;;;;;;10.75;7.72;;;35.60;68.30;;;;;;5064625;28;20223;-82
2022/08/19 12:38:19;;;;;;;10.55;6.88;;;35.10;69.70;;;;;;5061425;28;20710;-83
2022/08/19 12:41:11;;;;;;;14.82;7.25;;;34.60;72.80;;;;;;5057524;28;20220;-82
2022/08/19 12:44:00;;;;;;;11.45;7.60;;;34.90;73.60;;;;;;5060766;28;20239;-82
2022/08/19 12:46:49;;;;;;;13.52;7.47;;;34.80;73.40;;;;;;5064407;28;20692;-83
2022/08/19 12:49:43;;;;;;;9.85;7.72;;;34.30;74.20;;;;;;5047027;28;20235;-83
2022/08/19 12:52:44;;;;;;;12.63;7.95;;;34.20;73.90;;;;;;5046574;28;20230;-82
2022/08/19 12:55:33;;;;;;;14.68;7.15;;;33.90;74.30;;;;;;5062062;28;20213;-83
2022/08/19 12:58:22;;;;;;;12.35;7.68;;;33.70;75.40;;;;;;5046453;28;20211;-82
2022/08/19 13:01:18;;;;;;;14.05;7.35;;;33.80;75.40;;;;;;5064035;28;20763;-83
2022/08/19 13:04:10;;;;;;;9.32;7.18;;;33.80;75.60;;;;;;5065275;28;20223;-82
2022/08/19 13:06:59;;;;;;;12.80;7.57;;;33.60;75.70;;;;;;5064451;28;20234;-82
2022/08/19 13:09:52;;;;;;;10.35;7.20;;;33.60;75.50;;;;;;5060655;28;20253;-82
2022/08/19 13:12:41;;;;;;;13.45;7.38;;;33.40;76.20;;;;;;5063452;28;20228;-83
2022/08/19 13:15:34;;;;;;;18.52;7.28;;;33.40;77.00;;;;;;5049101;28;20212;-82
2022/08/19 13:18:23;;;;;;;15.93;7.60;;;33.40;77.00;;;;;;5047519;28;20215;-82
2022/08/19 13:21:12;;;;;;;11.07;6.85;;;33.10;77.00;;;;;;5037706;28;20215;-82
2022/08/19 13:24:01;;;;;;;10.07;7.10;;;33.10;77.70;;;;;;5060829;28;20231;-82
2022/08/19 13:26:51;;;;;;;16.13;7.50;;;33.00;78.50;;;;;;5047670;28;20220;-82
2022/08/19 13:36:00;;;;;;;10.38;7.18;;;33.10;79.90;;;;;;5063153;28;20223;-81
2022/08/19 13:38:49;;;;;;;10.73;7.18;;;33.00;78.40;;;;;;5046906;28;20243;-82
2022/08/19 13:41:43;;;;;;;14.38;7.35;;;32.60;79.10;;;;;;5061948;28;20234;-82
2022/08/19 13:44:34;;;;;;;13.90;7.28;;;32.50;79.00;;;;;;5042468;28;20224;-83
2022/08/19 13:47:23;;;;;;;14.75;7.15;;;32.40;79.40;;;;;;5062453;28;20216;-83
2022/08/19 13:50:13;;;;;;;7.57;6.82;;;32.30;79.20;;;;;;5062278;28;20219;-82
2022/08/19 13:53:03;;;;;;;9.63;6.60;;;32.30;80.00;;;;;;5031632;28;20275;-82
2022/08/19 13:55:53;;;;;;;15.07;7.18;;;32.30;78.90;;;;;;5028317;28;20221;-83
2022/08/19 13:58:42;;;;;;;16.08;6.95;;;32.30;78.50;;;;;;5025262;28;20229;-84
2022/08/19 14:01:31;;;;;;;9.57;7.00;;;32.30;78.20;;;;;;5027151;28;20338;-83
2022/08/19 14:04:20;;;;;;;13.15;6.75;;;32.30;79.60;;;;;;5028149;28;20327;-80
2022/08/19 14:07:09;;;;;;;11.13;6.60;;;32.30;80.10;;;;;;5027848;28;20267;-83
2022/08/19 14:09:57;;;;;;;12.57;6.75;;;32.40;79.00;;;;;;5025782;28;20221;-83
2022/08/19 14:12:47;;;;;;;8.48;6.90;;;32.30;77.90;;;;;;5041572;28;20232;-83
2022/08/19 14:15:37;;;;;;;12.38;6.55;;;32.30;77.90;;;;;;5025440;28;20225;-84
2022/08/19 14:18:26;;;;;;;12.15;6.28;;;32.20;76.90;;;;;;5024923;28;20741;-84
2022/08/19 14:21:18;;;;;;;12.93;6.88;;;32.20;77.90;;;;;;5027744;28;20229;-83
2022/08/19 14:24:07;;;;;;;12.60;6.70;;;32.20;78.00;;;;;;5040401;28;20598;-83
2022/08/19 14:26:56;;;;;;;11.40;6.43;;;32.00;77.40;;;;;;5025671;28;20225;-84
2022/08/19 14:29:45;;;;;;;11.98;6.75;;;32.00;79.00;;;;;;5025284;28;20311;-84
2022/08/19 14:32:34;;;;;;;13.02;6.97;;;32.00;79.10;;;;;;5028533;28;20964;-84
2022/08/19 14:35:24;;;;;;;10.57;6.97;;;32.00;78.90;;;;;;5027534;28;20221;-84
2022/08/19 14:38:17;;;;;;;9.05;6.15;;;32.10;79.10;;;;;;5046434;28;20238;-84
2022/08/19 14:41:19;;;;;;;13.88;6.30;;;32.00;78.50;;;;;;5040484;28;20224;-80
2022/08/19 14:44:09;;;;;;;8.32;6.03;;;31.90;78.20;;;;;;5037912;28;20316;-82
2022/08/19 14:46:58;;;;;;;8.55;6.13;;;31.90;77.90;;;;;;5039883;28;20697;-84
2022/08/19 14:49:46;;;;;;;14.50;6.25;;;31.90;78.20;;;;;;5038647;28;20229;-84
2022/08/19 14:52:39;;;;;;;10.63;5.68;;;31.90;78.50;;;;;;5014639;28;20225;-83
2022/08/19 14:55:27;;;;;;;16.52;6.47;;;31.80;77.30;;;;;;5024720;28;20665;-82
2022/08/19 14:58:16;;;;;;;10.38;6.25;;;31.70;77.90;;;;;;5016402;28;20236;-84
2022/08/19 15:01:17;;;;;;;12.88;6.22;;;31.70;77.20;;;;;;5021495;28;20358;-84
2022/08/19 15:04:05;;;;;;;11.27;6.38;;;31.70;77.50;;;;;;5028002;28;20229;-83